Time;durP1;ratioP1;P1;durP2;ratioP2;P2;SDS_P1;SDS_P2;PMS_P1;PMS_P2;Temp;Humidity;BMP_temperature;BMP_pressure;BME280_temperature;BME280_humidity;BME280_pressure;Samples;Min_cycle;Max_cycle;Signal;HPM_P1;HPM_P2
2023/12/16 00:02:20;;;;;;;16.08;7.97;;;;;;;6.05;100.00;103735.44;4982670;28;20035;-78
2023/12/16 00:04:45;;;;;;;15.18;6.70;;;;;;;6.02;100.00;103736.31;4975864;28;20124;-77
2023/12/16 00:07:10;;;;;;;13.68;7.10;;;;;;;6.02;100.00;103743.34;4987494;28;20524;-77
2023/12/16 00:09:36;;;;;;;15.38;6.70;;;;;;;5.99;100.00;103738.91;4988090;28;20113;-77
2023/12/16 00:12:02;;;;;;;13.93;6.45;;;;;;;5.99;100.00;103745.09;4987072;28;20057;-76
2023/12/16 00:14:28;;;;;;;12.35;6.82;;;;;;;6.03;100.00;103742.50;4986849;28;20074;-77
2023/12/16 00:16:53;;;;;;;14.40;6.78;;;;;;;6.05;100.00;103753.97;5000556;28;20038;-77
2023/12/16 00:19:18;;;;;;;11.77;6.07;;;;;;;6.05;100.00;103752.19;4985501;28;20508;-77
2023/12/16 00:21:44;;;;;;;16.33;6.80;;;;;;;6.03;100.00;103756.59;4980329;28;20142;-77
2023/12/16 00:24:09;;;;;;;12.82;6.60;;;;;;;6.03;100.00;103750.44;4988594;28;20034;-77
2023/12/16 00:26:35;;;;;;;17.83;7.13;;;;;;;5.97;100.00;103746.78;4986045;28;20065;-76
2023/12/16 00:29:00;;;;;;;14.27;6.68;;;;;;;6.02;100.00;103748.63;4978874;28;20211;-77
2023/12/16 00:31:25;;;;;;;14.15;6.35;;;;;;;6.04;100.00;103754.84;4984827;28;20043;-76
2023/12/16 00:33:51;;;;;;;15.90;6.65;;;;;;;6.04;100.00;103747.78;4980411;28;20034;-76
2023/12/16 00:36:16;;;;;;;13.80;6.85;;;;;;;6.03;100.00;103743.38;4992301;28;20054;-77
2023/12/16 00:38:41;;;;;;;16.40;6.85;;;;;;;6.03;100.00;103738.09;4986526;28;20065;-77
2023/12/16 00:41:07;;;;;;;17.70;6.60;;;;;;;6.01;100.00;103731.00;4987429;28;20073;-77
2023/12/16 00:43:33;;;;;;;12.65;6.15;;;;;;;6.03;100.00;103734.56;4988573;28;20038;-76
2023/12/16 00:45:58;;;;;;;13.20;6.22;;;;;;;6.02;100.00;103728.38;4972520;28;20161;-77
2023/12/16 00:48:24;;;;;;;12.80;5.55;;;;;;;6.03;100.00;103724.88;4986845;28;20042;-77
2023/12/16 00:50:49;;;;;;;13.88;5.90;;;;;;;6.04;100.00;103723.09;4997271;28;20061;-76
2023/12/16 00:53:15;;;;;;;15.77;6.10;;;;;;;6.03;100.00;103724.88;4985155;28;20045;-77
2023/12/16 00:55:40;;;;;;;11.20;5.85;;;;;;;6.03;100.00;103730.16;4986269;28;20077;-76
2023/12/16 00:58:06;;;;;;;12.52;6.00;;;;;;;6.03;100.00;103734.56;4985365;28;20365;-77
2023/12/16 01:00:32;;;;;;;14.93;6.07;;;;;;;6.06;100.00;103737.22;4967231;28;20046;-77
2023/12/16 01:03:00;;;;;;;11.55;5.80;;;;;;;6.02;100.00;103733.69;4976795;28;20034;-76
2023/12/16 01:05:26;;;;;;;15.95;6.68;;;;;;;6.06;100.00;103732.84;4988696;28;20272;-77
2023/12/16 01:07:54;;;;;;;12.88;6.07;;;;;;;6.06;100.00;103737.22;4983585;28;20478;-77
2023/12/16 01:10:20;;;;;;;10.00;5.90;;;;;;;6.08;100.00;103733.75;4985054;28;20121;-76
2023/12/16 01:12:45;;;;;;;17.90;6.10;;;;;;;6.08;100.00;103741.69;4984643;28;20457;-77
2023/12/16 01:15:11;;;;;;;11.77;5.80;;;;;;;6.04;100.00;103739.84;4969493;28;20045;-76
2023/12/16 01:17:37;;;;;;;13.13;5.40;;;;;;;6.09;100.00;103745.22;4978671;28;20045;-76
2023/12/16 01:20:02;;;;;;;14.50;5.82;;;;;;;6.06;100.00;103745.16;4976739;28;20051;-76
2023/12/16 01:22:28;;;;;;;11.43;5.30;;;;;;;5.95;100.00;103726.50;4987096;28;20576;-76
2023/12/16 01:24:53;;;;;;;14.18;5.75;;;;;;;6.03;100.00;103740.72;4977121;28;20488;-77
2023/12/16 01:27:18;;;;;;;10.18;5.10;;;;;;;6.02;100.00;103731.03;4981353;28;20046;-76
2023/12/16 01:29:44;;;;;;;14.57;6.03;;;;;;;6.01;100.00;103728.34;4981417;28;20432;-76
2023/12/16 01:32:10;;;;;;;14.02;5.72;;;;;;;6.00;100.00;103730.09;4987451;28;20050;-77
2023/12/16 01:34:35;;;;;;;14.55;5.55;;;;;;;5.95;100.00;103723.88;4986078;28;20158;-77
2023/12/16 01:37:00;;;;;;;12.55;5.78;;;;;;;6.01;100.00;103731.88;4986472;28;20117;-76
2023/12/16 01:39:26;;;;;;;11.70;5.32;;;;;;;6.03;100.00;103723.97;4970455;28;20070;-76
2023/12/16 01:41:51;;;;;;;14.00;4.88;;;;;;;6.02;100.00;103720.47;5000666;28;20492;-77
2023/12/16 01:44:16;;;;;;;11.75;5.25;;;;;;;6.01;100.00;103710.72;4970706;28;20034;-76
2023/12/16 01:46:42;;;;;;;13.63;5.05;;;;;;;6.03;100.00;103713.41;4983512;28;20098;-78
2023/12/16 01:49:09;;;;;;;10.35;4.78;;;;;;;5.98;100.00;103708.94;4982951;28;20053;-77
2023/12/16 01:51:34;;;;;;;11.20;5.25;;;;;;;6.02;100.00;103712.53;4986284;28;20492;-77
2023/12/16 01:54:00;;;;;;;16.27;5.72;;;;;;;6.03;100.00;103713.41;4964189;28;20030;-77
2023/12/16 01:56:28;;;;;;;14.15;5.20;;;;;;;6.02;100.00;103717.81;4972675;28;20489;-79
2023/12/16 01:58:54;;;;;;;10.60;5.00;;;;;;;5.98;100.00;103705.41;4982600;28;20045;-76
2023/12/16 02:01:20;;;;;;;8.93;4.88;;;;;;;6.08;99.94;103732.84;4984194;28;20042;-78
2023/12/16 02:03:47;;;;;;;10.27;4.70;;;;;;;6.05;99.73;103723.13;4983593;28;20134;-75
2023/12/16 02:06:14;;;;;;;11.63;4.95;;;;;;;6.06;99.77;103727.56;4983264;28;20053;-76
2023/12/16 02:08:41;;;;;;;12.38;5.18;;;;;;;6.06;99.77;103729.28;4982400;28;20675;-77
2023/12/16 02:11:10;;;;;;;16.75;5.35;;;;;;;5.96;99.71;103713.31;4983020;28;20085;-76
2023/12/16 02:13:36;;;;;;;11.70;5.53;;;;;;;6.06;99.43;103730.22;4980427;28;20059;-78
2023/12/16 02:16:02;;;;;;;11.02;4.70;;;;;;;5.99;100.00;103723.94;4977679;28;20154;-78
2023/12/16 02:18:27;;;;;;;12.02;4.93;;;;;;;6.03;100.00;103723.97;4982616;28;20489;-77
2023/12/16 02:20:55;;;;;;;11.93;5.18;;;;;;;5.94;100.00;103714.16;4984482;28;20042;-75
2023/12/16 02:23:21;;;;;;;10.95;5.05;;;;;;;5.96;100.00;103726.53;4981826;28;20031;-77
2023/12/16 02:25:46;;;;;;;13.38;5.68;;;;;;;5.92;99.97;103727.34;4984000;28;20037;-77
2023/12/16 02:28:12;;;;;;;13.70;5.28;;;;;;;5.85;100.00;103728.09;4984022;28;20325;-76
2023/12/16 02:30:37;;;;;;;10.48;5.10;;;;;;;5.87;100.00;103722.84;4984509;28;20508;-76
2023/12/16 02:33:03;;;;;;;14.90;5.32;;;;;;;5.86;100.00;103719.31;4993461;28;20038;-75
2023/12/16 02:35:28;;;;;;;10.68;5.70;;;;;;;5.88;99.41;103714.91;4976731;28;20026;-77
2023/12/16 02:37:53;;;;;;;11.88;5.47;;;;;;;5.79;100.00;103720.06;4979672;28;20047;-77
2023/12/16 02:40:19;;;;;;;12.38;4.75;;;;;;;5.68;100.00;103722.53;4980953;28;20034;-76
2023/12/16 02:42:45;;;;;;;12.75;5.43;;;;;;;5.52;100.00;103709.97;4981395;28;20046;-77
2023/12/16 02:45:10;;;;;;;13.63;4.90;;;;;;;5.49;100.00;103720.50;4968232;28;20041;-78
2023/12/16 02:47:35;;;;;;;12.73;5.07;;;;;;;5.41;100.00;103727.41;4984272;28;20057;-77
2023/12/16 02:50:01;;;;;;;11.45;5.15;;;;;;;5.33;100.00;103727.25;4984031;28;20042;-76
2023/12/16 02:52:27;;;;;;;11.63;5.28;;;;;;;5.30;100.00;103736.88;4990234;28;20034;-76
2023/12/16 02:54:52;;;;;;;9.65;5.00;;;;;;;5.25;100.00;103731.53;4985786;28;20654;-78
2023/12/16 02:57:20;;;;;;;10.75;5.07;;;;;;;5.20;100.00;103731.44;4971072;28;20029;-76
2023/12/16 02:59:45;;;;;;;15.35;5.57;;;;;;;5.19;100.00;103723.50;4984803;28;20129;-79
2023/12/16 03:02:11;;;;;;;12.10;5.38;;;;;;;5.17;100.00;103717.28;4975482;28;20914;-77
2023/12/16 03:04:36;;;;;;;11.30;5.40;;;;;;;5.19;100.00;103713.84;4982582;28;20038;-77
2023/12/16 03:07:02;;;;;;;17.48;6.15;;;;;;;5.12;100.00;103706.66;4983741;28;20038;-78
2023/12/16 03:09:27;;;;;;;14.65;5.38;;;;;;;5.16;100.00;103710.25;4982651;28;20041;-78
2023/12/16 03:11:56;;;;;;;12.30;5.30;;;;;;;5.16;100.00;103710.25;4985710;28;20085;-76
2023/12/16 03:14:21;;;;;;;12.45;5.40;;;;;;;5.16;100.00;103707.59;4985450;28;20110;-76
2023/12/16 03:16:47;;;;;;;12.95;5.95;;;;;;;5.05;100.00;103706.50;4966221;28;20038;-77
2023/12/16 03:19:12;;;;;;;14.20;5.47;;;;;;;5.13;100.00;103713.72;4989956;28;20113;-79
2023/12/16 03:21:37;;;;;;;11.10;5.80;;;;;;;5.13;100.00;103720.75;4982654;28;20038;-78
2023/12/16 03:24:03;;;;;;;10.15;5.30;;;;;;;5.10;100.00;103713.69;4968772;28;20042;-76
2023/12/16 03:26:29;;;;;;;12.68;5.70;;;;;;;5.11;100.00;103711.91;4982521;28;20077;-77
2023/12/16 03:28:54;;;;;;;15.52;5.82;;;;;;;5.20;100.00;103725.28;4988954;28;20050;-77
2023/12/16 03:31:20;;;;;;;11.70;5.55;;;;;;;5.20;100.00;103722.63;4989399;28;20053;-80
2023/12/16 03:33:45;;;;;;;14.32;5.65;;;;;;;5.21;100.00;103720.00;4976928;28;20042;-77
2023/12/16 03:36:10;;;;;;;17.13;5.90;;;;;;;5.18;100.00;103719.06;4982769;28;20039;-77
2023/12/16 03:38:36;;;;;;;8.98;5.57;;;;;;;5.23;100.00;103723.59;4979866;28;20130;-77
2023/12/16 03:41:01;;;;;;;16.13;6.32;;;;;;;5.28;100.00;103722.78;4980582;28;20042;-78
2023/12/16 03:43:27;;;;;;;13.60;5.57;;;;;;;5.31;100.00;103725.44;4983194;28;20062;-77
2023/12/16 03:45:52;;;;;;;14.45;6.15;;;;;;;5.30;100.00;103727.19;4978519;28;20042;-77
2023/12/16 03:48:17;;;;;;;14.60;5.60;;;;;;;5.34;100.00;103720.22;4988811;28;20034;-77
2023/12/16 03:50:43;;;;;;;13.68;5.82;;;;;;;5.36;100.00;103723.78;4975932;28;20133;-77
2023/12/16 03:53:08;;;;;;;12.90;5.63;;;;;;;5.35;100.00;103725.56;4985821;28;20041;-77
2023/12/16 03:55:34;;;;;;;12.15;5.75;;;;;;;5.42;100.00;103714.19;4987442;28;20279;-77
2023/12/16 03:57:59;;;;;;;14.25;6.30;;;;;;;5.46;100.00;103720.44;4982810;28;20476;-76
2023/12/16 04:00:24;;;;;;;10.02;5.00;;;;;;;5.42;100.00;103714.19;4982656;28;20031;-76
2023/12/16 04:02:49;;;;;;;11.57;5.65;;;;;;;5.45;100.00;103708.97;4984750;28;20041;-77
2023/12/16 04:05:15;;;;;;;13.65;5.78;;;;;;;5.49;100.00;103715.19;4980026;28;20038;-76
2023/12/16 04:07:41;;;;;;;12.88;5.95;;;;;;;5.51;100.00;103708.19;4987417;28;20285;-76
2023/12/16 04:10:08;;;;;;;10.40;5.45;;;;;;;5.51;100.00;103716.09;4985245;28;20046;-75
2023/12/16 04:12:34;;;;;;;10.93;5.10;;;;;;;5.53;100.00;103710.88;4977840;28;20073;-75
2023/12/16 04:14:59;;;;;;;11.35;5.18;;;;;;;5.59;100.00;103716.22;4991357;28;20544;-77
2023/12/16 04:17:25;;;;;;;14.73;5.50;;;;;;;5.57;100.00;103715.34;4986212;28;20113;-76
2023/12/16 04:19:51;;;;;;;13.25;5.60;;;;;;;5.59;100.00;103719.75;4986301;28;20042;-75
2023/12/16 04:22:17;;;;;;;11.82;5.88;;;;;;;5.61;100.00;103722.44;4986994;28;20035;-77
2023/12/16 04:24:43;;;;;;;14.73;6.05;;;;;;;5.61;100.00;103725.97;4989821;28;20060;-76
2023/12/16 04:27:08;;;;;;;11.68;6.15;;;;;;;5.63;100.00;103728.63;4986798;28;20076;-76
2023/12/16 04:29:33;;;;;;;10.60;5.35;;;;;;;5.62;100.00;103716.28;4986552;28;20041;-77
2023/12/16 04:31:59;;;;;;;13.98;5.40;;;;;;;5.50;100.00;103702.00;4987229;28;20068;-76
2023/12/16 04:34:24;;;;;;;12.15;5.60;;;;;;;5.63;100.00;103718.94;4981909;28;20143;-75
2023/12/16 04:36:49;;;;;;;10.48;5.30;;;;;;;5.66;100.00;103723.41;4984061;28;20327;-77
2023/12/16 04:39:15;;;;;;;10.80;5.68;;;;;;;5.62;100.00;103708.34;4967760;28;20046;-79
2023/12/16 04:41:40;;;;;;;15.15;6.07;;;;;;;5.67;100.00;103714.59;4994936;28;20080;-78
2023/12/16 04:44:05;;;;;;;16.20;5.82;;;;;;;5.65;100.00;103705.78;4969375;28;20050;-77
2023/12/16 04:46:30;;;;;;;13.57;6.13;;;;;;;5.64;100.00;103710.16;4979663;28;20074;-78
2023/12/16 04:48:56;;;;;;;12.23;5.10;;;;;;;5.57;100.00;103710.94;4982606;28;20035;-78
2023/12/16 04:51:22;;;;;;;12.68;6.13;;;;;;;5.57;100.00;103707.41;4984035;28;20034;-77
2023/12/16 04:53:48;;;;;;;14.68;5.65;;;;;;;5.52;100.00;103711.69;4985183;28;20130;-77
2023/12/16 04:56:13;;;;;;;16.70;7.18;;;;;;;5.45;100.00;103702.81;4985805;28;20547;-77
2023/12/16 04:58:39;;;;;;;17.27;6.75;;;;;;;5.39;100.00;103707.97;4984001;28;20042;-76
2023/12/16 05:01:04;;;;;;;14.23;6.22;;;;;;;5.35;100.00;103711.44;4987411;28;20535;-76
2023/12/16 05:03:32;;;;;;;16.05;5.93;;;;;;;5.32;100.00;103706.13;4980685;28;20049;-76
2023/12/16 05:05:58;;;;;;;13.65;6.07;;;;;;;5.32;100.00;103709.66;4986214;28;20393;-78
2023/12/16 05:08:23;;;;;;;13.25;5.75;;;;;;;5.35;100.00;103701.78;4985022;28;20046;-77
2023/12/16 05:10:50;;;;;;;13.38;5.35;;;;;;;5.29;100.00;103706.94;4987560;28;20038;-75
2023/12/16 05:13:15;;;;;;;10.85;5.32;;;;;;;5.27;100.00;103713.97;4983908;28;20050;-78
2023/12/16 05:15:41;;;;;;;13.23;5.85;;;;;;;5.22;100.00;103707.69;4965569;28;20167;-77
2023/12/16 05:18:07;;;;;;;14.48;6.05;;;;;;;5.17;100.00;103712.91;4978525;28;20030;-78
2023/12/16 05:20:33;;;;;;;12.60;6.30;;;;;;;5.16;100.00;103724.31;4979944;28;20027;-77
2023/12/16 05:23:02;;;;;;;14.05;5.82;;;;;;;5.14;100.00;103706.66;4989019;28;20125;-77
2023/12/16 05:25:28;;;;;;;12.48;6.05;;;;;;;5.09;100.00;103718.91;4983236;28;20041;-77
2023/12/16 05:27:56;;;;;;;13.35;5.60;;;;;;;5.04;100.00;103717.94;4978935;28;20488;-76
2023/12/16 05:30:21;;;;;;;14.95;6.57;;;;;;;4.97;100.00;103720.50;4984119;28;20050;-76
2023/12/16 05:32:47;;;;;;;18.52;6.25;;;;;;;4.94;100.00;103720.41;4985733;28;20148;-76
2023/12/16 05:35:12;;;;;;;14.98;5.97;;;;;;;4.90;100.00;103721.22;4978828;28;20730;-75
2023/12/16 05:37:37;;;;;;;15.68;5.82;;;;;;;4.95;100.00;103726.59;4982389;28;20117;-77
2023/12/16 05:40:03;;;;;;;15.82;6.10;;;;;;;4.87;100.00;103721.16;4990045;28;20034;-76
2023/12/16 05:42:29;;;;;;;15.00;6.28;;;;;;;4.87;100.00;103731.72;4989375;28;20377;-76
2023/12/16 05:44:58;;;;;;;13.68;5.93;;;;;;;4.83;100.00;103729.00;4988168;28;20102;-76
2023/12/16 05:47:23;;;;;;;14.48;5.65;;;;;;;4.82;100.00;103725.47;4982729;28;20081;-77
2023/12/16 05:49:48;;;;;;;13.32;5.88;;;;;;;4.80;100.00;103719.25;4975620;28;20078;-76
2023/12/16 05:52:14;;;;;;;12.50;5.28;;;;;;;4.74;100.00;103722.69;4986872;28;20412;-76
2023/12/16 05:54:39;;;;;;;16.60;6.20;;;;;;;4.69;100.00;103726.09;4989742;28;20045;-77
2023/12/16 05:57:04;;;;;;;12.60;5.97;;;;;;;4.71;100.00;103732.28;4986412;28;20097;-76
2023/12/16 05:59:30;;;;;;;16.73;6.82;;;;;;;4.73;100.00;103738.50;4977559;28;20042;-76
2023/12/16 06:01:55;;;;;;;14.48;6.05;;;;;;;4.67;100.00;103731.31;4978260;28;20034;-75
2023/12/16 06:04:21;;;;;;;12.82;5.32;;;;;;;4.67;100.00;103736.59;4984880;28;20050;-76
2023/12/16 06:06:47;;;;;;;14.43;6.60;;;;;;;4.65;100.00;103724.25;4978266;28;20041;-76
2023/12/16 06:09:13;;;;;;;15.05;6.07;;;;;;;4.65;100.00;103721.63;4977821;28;20042;-76
2023/12/16 06:11:38;;;;;;;18.23;6.07;;;;;;;4.64;100.00;103715.47;4986430;28;20348;-76
2023/12/16 06:14:03;;;;;;;15.20;6.05;;;;;;;4.64;100.00;103726.00;4983311;28;20033;-76
2023/12/16 06:16:29;;;;;;;12.98;5.88;;;;;;;4.59;100.00;103724.13;4959344;28;20046;-75
2023/12/16 06:18:57;;;;;;;16.67;6.40;;;;;;;4.59;100.00;103727.63;4978700;28;20038;-76
2023/12/16 06:21:23;;;;;;;17.88;6.72;;;;;;;4.58;100.00;103739.06;4985929;28;20085;-76
2023/12/16 06:23:48;;;;;;;15.63;6.50;;;;;;;4.46;100.00;103725.63;4980214;28;20042;-76
2023/12/16 06:26:13;;;;;;;17.05;5.88;;;;;;;4.52;100.00;103743.34;4985272;28;20048;-76
2023/12/16 06:28:39;;;;;;;17.50;6.57;;;;;;;4.50;100.00;103738.91;4977636;28;20038;-76
2023/12/16 06:31:04;;;;;;;14.60;6.70;;;;;;;4.47;100.00;103736.22;4973328;28;20035;-76
2023/12/16 06:33:30;;;;;;;12.80;5.45;;;;;;;4.45;100.00;103732.63;4979455;28;20113;-76
2023/12/16 06:35:56;;;;;;;18.48;5.80;;;;;;;4.44;100.00;103722.97;4984849;28;20038;-75
2023/12/16 06:38:21;;;;;;;16.40;6.40;;;;;;;4.36;100.00;103716.63;4968419;28;20579;-76
2023/12/16 06:40:46;;;;;;;14.65;6.05;;;;;;;4.38;100.00;103722.81;4984622;28;20034;-77
2023/12/16 06:43:12;;;;;;;16.17;5.88;;;;;;;4.34;100.00;103714.81;4978049;28;20037;-76
2023/12/16 06:45:40;;;;;;;11.75;5.78;;;;;;;4.36;100.00;103721.03;4984567;28;20038;-77
2023/12/16 06:48:05;;;;;;;15.68;6.68;;;;;;;4.32;100.00;103717.44;4981456;28;20363;-77
2023/12/16 06:50:31;;;;;;;18.45;7.00;;;;;;;4.31;100.00;103720.03;4981626;28;20126;-79
2023/12/16 06:52:57;;;;;;;14.02;5.85;;;;;;;4.32;100.00;103720.06;4977179;28;20062;-76
2023/12/16 06:55:22;;;;;;;13.43;5.35;;;;;;;4.29;100.00;103720.00;4980548;28;20040;-76
2023/12/16 06:57:47;;;;;;;19.38;6.80;;;;;;;4.31;100.00;103718.28;4984504;28;20066;-77
2023/12/16 07:00:13;;;;;;;17.02;5.97;;;;;;;4.31;100.00;103731.47;4981736;28;20480;-76
2023/12/16 07:02:43;;;;;;;17.48;6.10;;;;;;;4.31;100.00;103733.22;4982409;28;20045;-77
2023/12/16 07:05:10;;;;;;;19.50;5.93;;;;;;;4.25;100.00;103731.31;4977983;28;20066;-78
2023/12/16 07:07:35;;;;;;;15.20;6.15;;;;;;;4.32;100.00;103730.59;4982991;28;20153;-75
2023/12/16 07:10:01;;;;;;;12.68;6.32;;;;;;;4.25;100.00;103720.78;4983255;28;20190;-77
2023/12/16 07:12:27;;;;;;;13.57;5.68;;;;;;;4.30;100.00;103729.66;4982535;28;20054;-76
2023/12/16 07:14:52;;;;;;;10.98;5.13;;;;;;;4.33;100.00;103732.38;4980400;28;20042;-76
2023/12/16 07:17:18;;;;;;;13.20;5.80;;;;;;;4.29;100.00;103730.53;4981476;28;20034;-77
2023/12/16 07:19:43;;;;;;;14.50;5.78;;;;;;;4.30;100.00;103744.59;4987174;28;20046;-77
2023/12/16 07:22:08;;;;;;;12.68;5.55;;;;;;;4.28;100.00;103749.84;4983909;28;20034;-77
2023/12/16 07:24:34;;;;;;;10.45;5.10;;;;;;;4.29;100.00;103758.66;4975590;28;20041;-75
2023/12/16 07:26:59;;;;;;;13.63;5.80;;;;;;;4.31;100.00;103749.06;4972415;28;20030;-77
2023/12/16 07:29:25;;;;;;;19.50;5.72;;;;;;;4.29;100.00;103742.84;4981215;28;20102;-76
2023/12/16 07:31:50;;;;;;;15.80;5.60;;;;;;;4.32;100.00;103756.97;4979981;28;20150;-76
2023/12/16 07:34:16;;;;;;;13.55;5.35;;;;;;;4.32;100.00;103749.06;4990922;28;20366;-76
2023/12/16 07:36:44;;;;;;;15.93;5.35;;;;;;;4.29;100.00;103756.03;4980743;28;20038;-77
2023/12/16 07:39:09;;;;;;;16.08;5.90;;;;;;;4.27;100.00;103761.28;4980885;28;20039;-77
2023/12/16 07:41:35;;;;;;;14.15;5.43;;;;;;;4.25;100.00;103763.84;4990681;28;20057;-76
2023/12/16 07:44:01;;;;;;;13.93;6.10;;;;;;;4.26;100.00;103762.09;4986122;28;20472;-77
2023/12/16 07:46:29;;;;;;;18.10;6.25;;;;;;;4.22;100.00;103761.16;4984956;28;20038;-76
2023/12/16 07:48:55;;;;;;;18.48;6.68;;;;;;;4.24;100.00;103755.91;4982988;28;20104;-76
2023/12/16 07:51:24;;;;;;;15.52;5.97;;;;;;;4.28;100.00;103768.31;4973254;28;20030;-76
2023/12/16 07:53:50;;;;;;;13.73;5.82;;;;;;;4.31;100.00;103757.84;4984810;28;20452;-76
2023/12/16 07:56:20;;;;;;;14.55;5.63;;;;;;;4.34;100.00;103760.53;4973150;28;20081;-77
2023/12/16 07:58:46;;;;;;;14.48;5.70;;;;;;;4.39;100.00;103765.91;4982102;28;20061;-78
2023/12/16 08:01:14;;;;;;;20.73;6.30;;;;;;;4.40;100.00;103768.59;4973806;28;20031;-76
2023/12/16 08:03:40;;;;;;;12.27;5.05;;;;;;;4.37;100.00;103768.50;4980060;28;20064;-76
2023/12/16 08:06:06;;;;;;;13.23;5.05;;;;;;;4.36;100.00;103777.28;4984960;28;20039;-78
2023/12/16 08:08:31;;;;;;;16.83;6.30;;;;;;;4.34;100.00;103771.06;4984658;28;20179;-76
2023/12/16 08:10:57;;;;;;;15.05;5.40;;;;;;;4.42;100.00;103771.25;4984820;28;20038;-76
2023/12/16 08:13:23;;;;;;;13.55;5.47;;;;;;;4.54;100.00;103773.25;4987209;28;20050;-76
2023/12/16 08:15:48;;;;;;;16.85;5.65;;;;;;;4.47;100.00;103783.69;4985968;28;20085;-76
2023/12/16 08:18:13;;;;;;;13.27;5.95;;;;;;;4.54;100.00;103786.44;4984179;28;20075;-77
2023/12/16 08:20:39;;;;;;;15.18;5.28;;;;;;;4.55;100.00;103786.47;4981335;28;20049;-75
2023/12/16 08:23:08;;;;;;;15.60;5.13;;;;;;;4.60;100.00;103792.75;4981642;28;20042;-76
2023/12/16 08:25:35;;;;;;;13.50;5.43;;;;;;;4.61;100.00;103783.09;4979245;28;20030;-77
2023/12/16 08:28:00;;;;;;;11.75;5.65;;;;;;;4.61;100.00;103794.53;4979472;28;20038;-75
2023/12/16 08:30:26;;;;;;;11.82;5.05;;;;;;;4.64;100.00;103784.03;4981791;28;20093;-76
2023/12/16 08:32:51;;;;;;;15.52;5.75;;;;;;;4.58;100.00;103778.63;4982791;28;20038;-76
2023/12/16 08:35:16;;;;;;;17.67;5.30;;;;;;;4.64;100.00;103786.69;4986495;28;20038;-76
2023/12/16 08:37:44;;;;;;;14.23;5.80;;;;;;;4.65;100.00;103793.72;4982840;28;20101;-75
2023/12/16 08:40:10;;;;;;;14.68;5.88;;;;;;;4.74;100.00;103786.00;4986280;28;20038;-76
2023/12/16 08:42:36;;;;;;;13.30;5.20;;;;;;;4.93;100.00;103795.19;4973033;28;20129;-76
2023/12/16 08:45:02;;;;;;;17.33;5.70;;;;;;;5.02;100.00;103796.19;4985515;28;20125;-75
2023/12/16 08:47:28;;;;;;;14.95;5.03;;;;;;;5.16;100.00;103792.97;4986585;28;20038;-76
2023/12/16 08:49:53;;;;;;;10.98;4.82;;;;;;;5.24;100.00;103791.38;4989183;28;20034;-76
2023/12/16 08:52:18;;;;;;;229.75;215.55;;;;;;;5.33;100.00;103790.66;4984013;28;20031;-76
2023/12/16 08:54:44;;;;;;;12.88;7.00;;;;;;;5.41;100.00;103788.16;4977734;28;20096;-75
2023/12/16 08:57:10;;;;;;;15.38;6.03;;;;;;;5.48;100.00;103785.66;4987414;28;20057;-76
2023/12/16 08:59:35;;;;;;;14.65;5.28;;;;;;;5.53;100.00;103792.75;4986502;28;20042;-76
2023/12/16 09:02:02;;;;;;;19.15;5.50;;;;;;;5.58;100.00;103799.00;4970852;28;20027;-76
2023/12/16 09:04:30;;;;;;;17.92;5.25;;;;;;;5.62;100.00;103804.38;4979864;28;20066;-75
2023/12/16 09:06:55;;;;;;;13.18;5.20;;;;;;;5.69;100.00;103798.34;4969790;28;20638;-76
2023/12/16 09:09:21;;;;;;;15.02;6.10;;;;;;;5.75;100.00;103802.81;4978068;28;20062;-76
2023/12/16 09:11:46;;;;;;;14.13;5.93;;;;;;;5.76;100.00;103794.00;4974352;28;20539;-76
2023/12/16 09:14:12;;;;;;;15.00;5.15;;;;;;;5.78;100.00;103787.03;4979383;28;20031;-76
2023/12/16 09:16:37;;;;;;;16.20;5.32;;;;;;;5.82;100.00;103786.19;4970988;28;20035;-76
2023/12/16 09:19:03;;;;;;;11.95;4.85;;;;;;;5.86;100.00;103780.09;4985975;28;20562;-78
2023/12/16 09:21:29;;;;;;;16.65;4.60;;;;;;;5.95;100.00;103798.78;4979139;28;20079;-75
2023/12/16 09:23:55;;;;;;;15.73;5.20;;;;;;;6.03;100.00;103806.84;4980183;28;20540;-76
2023/12/16 09:26:23;;;;;;;12.70;5.18;;;;;;;6.11;100.00;103804.31;4977837;28;20058;-77
2023/12/16 09:28:49;;;;;;;11.63;5.00;;;;;;;6.16;100.00;103798.22;4978074;28;20038;-76
2023/12/16 09:31:16;;;;;;;16.60;5.38;;;;;;;6.21;100.00;103801.81;4973145;28;20393;-75
2023/12/16 09:33:41;;;;;;;13.52;5.72;;;;;;;6.26;100.00;103801.88;4986204;28;20046;-76
2023/12/16 09:36:11;;;;;;;15.25;5.32;;;;;;;6.29;100.00;103804.56;4968849;28;20512;-76
2023/12/16 09:38:37;;;;;;;16.00;5.45;;;;;;;6.39;100.00;103816.16;4977656;28;20178;-78
2023/12/16 09:41:03;;;;;;;15.55;5.80;;;;;;;6.42;100.00;103814.44;4972837;28;20814;-75
2023/12/16 09:43:36;;;;;;;14.40;5.95;;;;;;;6.45;100.00;103803.91;4977132;28;20050;-77
2023/12/16 09:46:02;;;;;;;;;;;;;;;6.63;100.00;103828.84;4984459;28;20057;-77
2023/12/16 09:48:29;;;;;;;15.88;5.80;;;;;;;6.61;100.00;103827.94;4981438;28;19914;-76
2023/12/16 09:50:55;;;;;;;13.98;5.18;;;;;;;6.66;100.00;103826.25;4975977;28;20030;-77
2023/12/16 09:53:21;;;;;;;13.93;5.22;;;;;;;6.68;100.00;103830.66;4984439;28;20050;-76
2023/12/16 09:55:47;;;;;;;16.23;6.28;;;;;;;6.61;100.00;103804.13;4980749;28;20019;-76
2023/12/16 09:58:15;;;;;;;13.48;5.28;;;;;;;6.78;100.00;103820.22;4975970;28;20068;-76
2023/12/16 10:00:45;;;;;;;17.95;5.60;;;;;;;6.79;100.00;103809.66;4993690;28;20034;-77
2023/12/16 10:03:14;;;;;;;17.08;5.50;;;;;;;6.89;100.00;103815.94;4972380;28;20035;-76
2023/12/16 10:05:41;;;;;;;12.50;5.22;;;;;;;7.01;100.00;103816.06;4982030;28;20065;-76
2023/12/16 10:08:07;;;;;;;12.80;5.18;;;;;;;7.10;100.00;103825.88;4992019;28;20540;-76
2023/12/16 10:10:32;;;;;;;14.73;5.38;;;;;;;7.16;100.00;103825.97;4988402;28;20069;-76
2023/12/16 10:13:02;;;;;;;14.75;5.35;;;;;;;7.22;100.00;103824.25;4964340;28;20041;-76
2023/12/16 10:15:32;;;;;;;15.30;4.90;;;;;;;7.26;100.00;103826.94;4963754;28;20073;-76
2023/12/16 10:18:02;;;;;;;9.27;4.70;;;;;;;7.29;100.00;103822.56;4968150;28;20680;-76
2023/12/16 10:20:29;;;;;;;15.57;5.38;;;;;;;7.36;100.00;103835.03;4974587;28;20534;-76
2023/12/16 10:22:55;;;;;;;12.23;4.95;;;;;;;7.28;100.00;103812.84;4951053;28;20050;-76
2023/12/16 10:25:21;;;;;;;13.55;5.30;;;;;;;7.47;100.00;103824.50;4959477;28;20496;-76
2023/12/16 10:27:47;;;;;;;18.30;5.55;;;;;;;7.54;100.00;103826.34;4949635;28;20045;-76
2023/12/16 10:30:13;;;;;;;15.35;5.70;;;;;;;7.57;100.00;103829.03;4968407;28;20034;-76
2023/12/16 10:32:39;;;;;;;17.83;5.28;;;;;;;7.59;100.00;103823.75;4955895;28;20481;-76
2023/12/16 10:35:06;;;;;;;17.30;6.63;;;;;;;7.58;100.00;103821.97;4950145;28;20035;-77
2023/12/16 10:37:32;;;;;;;20.70;5.68;;;;;;;7.60;100.00;103814.91;4958800;28;20043;-76
2023/12/16 10:40:00;;;;;;;12.23;5.30;;;;;;;7.60;100.00;103828.16;4956135;28;20043;-77
2023/12/16 10:42:25;;;;;;;13.85;5.30;;;;;;;7.59;100.00;103821.97;4977113;28;20042;-75
2023/12/16 10:44:54;;;;;;;14.70;5.38;;;;;;;7.54;100.00;103822.81;4977857;28;20045;-76
2023/12/16 10:47:24;;;;;;;17.02;6.20;;;;;;;7.53;100.00;103815.75;4952810;28;20039;-77
2023/12/16 10:49:51;;;;;;;15.45;6.10;;;;;;;7.52;100.00;103817.47;4966399;28;20090;-75
2023/12/16 10:52:20;;;;;;;16.48;6.50;;;;;;;7.50;100.00;103806.00;4960156;28;20046;-77
2023/12/16 10:54:59;;;;;;;20.83;6.47;;;;;;;7.56;100.00;103805.16;4953089;28;20043;-77
2023/12/16 10:57:43;;;;;;;19.92;6.60;;;;;;;7.62;100.00;103821.13;4965253;28;20041;-76
2023/12/16 11:00:11;;;;;;;17.15;6.35;;;;;;;7.55;100.00;103806.91;4965147;28;20404;-75
2023/12/16 11:03:17;;;;;;;16.35;6.55;;;;;;;7.62;100.00;103813.19;4964612;28;20126;-76
2023/12/16 11:05:48;;;;;;;12.65;6.07;;;;;;;7.58;100.00;103803.41;4959982;28;20035;-76
2023/12/16 11:08:14;;;;;;;18.85;6.88;;;;;;;7.60;100.00;103799.88;4954489;28;20524;-75
2023/12/16 11:10:40;;;;;;;22.00;7.50;;;;;;;7.60;100.00;103812.25;4962351;28;20493;-76
2023/12/16 11:13:07;;;;;;;15.02;6.82;;;;;;;7.59;100.00;103797.22;4965677;28;20122;-75